createdAt,value
2023-05-14T00:00:59.786Z,15.36
2023-05-14T00:06:05.208Z,14.29
2023-05-14T00:11:09.162Z,12.66
2023-05-14T00:16:12.206Z,12.41
2023-05-14T00:21:14.954Z,15.13
2023-05-14T00:26:17.672Z,13.93
2023-05-14T00:31:20.427Z,12.36
2023-05-14T00:36:23.131Z,11.37
2023-05-14T00:41:25.822Z,10.67
2023-05-14T00:46:28.743Z,11.83
2023-05-14T00:51:31.562Z,14.73
2023-05-14T00:56:35.305Z,13.17
2023-05-14T01:01:37.860Z,11.66
2023-05-14T01:07:10.846Z,12.48
2023-05-14T01:12:34.719Z,14.51
2023-05-14T01:17:45.232Z,12.46
2023-05-14T01:22:47.804Z,11.61
2023-05-14T01:28:02.125Z,14.16
2023-05-14T01:33:16.554Z,12.84
2023-05-14T01:38:21.590Z,11.11
2023-05-14T01:43:24.514Z,13.00
2023-05-14T01:48:27.211Z,13.46
2023-05-14T01:53:29.842Z,11.42
2023-05-14T01:58:32.412Z,12.90
2023-05-14T02:03:35.070Z,13.92
2023-05-14T02:08:37.676Z,11.95
2023-05-14T02:13:40.230Z,10.69
2023-05-14T02:18:42.862Z,9.92
2023-05-14T02:23:45.520Z,12.40
2023-05-14T02:28:48.244Z,13.40
2023-05-14T02:33:50.851Z,11.31
2023-05-14T02:38:53.443Z,11.27
2023-05-14T02:43:56.051Z,13.55
2023-05-14T02:48:58.988Z,11.67
2023-05-14T02:54:01.785Z,10.68
2023-05-14T02:59:04.811Z,13.38
2023-05-14T03:04:07.984Z,12.09
2023-05-14T03:09:10.791Z,10.47
2023-05-14T03:14:13.412Z,11.20
2023-05-14T03:19:16.030Z,13.01
2023-05-14T03:24:18.717Z,11.81
2023-05-14T03:29:21.332Z,11.89
2023-05-14T03:34:24.301Z,12.54
2023-05-14T03:39:26.897Z,13.27
2023-05-14T03:44:29.527Z,14.13
2023-05-14T03:49:32.108Z,15.00
2023-05-14T03:54:34.767Z,15.80
2023-05-14T03:59:37.365Z,16.44
2023-05-14T04:04:41.121Z,17.00
2023-05-14T04:09:43.882Z,17.75
2023-05-14T04:14:46.530Z,18.46
2023-05-14T04:19:49.121Z,19.28
2023-05-14T04:24:52.464Z,20.22
2023-05-14T04:29:55.051Z,21.16
2023-05-14T04:34:57.744Z,21.74
2023-05-14T04:40:00.406Z,22.33
2023-05-14T04:45:05.276Z,23.32
2023-05-14T04:50:09.834Z,24.38
2023-05-14T04:55:12.426Z,25.29
2023-05-14T05:00:17.432Z,25.90
2023-05-14T05:05:20.703Z,26.53
2023-05-14T05:10:24.133Z,27.19
2023-05-14T05:15:27.508Z,27.76
2023-05-14T05:20:30.142Z,28.14
2023-05-14T05:25:32.934Z,28.64
2023-05-14T05:30:35.841Z,29.04
2023-05-14T05:35:38.513Z,29.49
2023-05-14T05:40:41.265Z,29.88
2023-05-14T05:45:44.220Z,30.40
2023-05-14T05:50:49.697Z,30.78
2023-05-14T05:55:52.446Z,30.95
2023-05-14T06:00:55.625Z,31.23
2023-05-14T06:05:58.208Z,31.47
2023-05-14T06:11:00.767Z,31.62
2023-05-14T06:16:03.596Z,31.76
2023-05-14T06:21:06.506Z,31.93
2023-05-14T06:26:09.047Z,32.03
2023-05-14T06:31:11.733Z,32.30
2023-05-14T06:36:14.364Z,32.45
2023-05-14T06:41:17.109Z,32.76
2023-05-14T06:46:19.684Z,33.10
2023-05-14T06:51:22.239Z,33.32
2023-05-14T06:56:24.916Z,33.42
2023-05-14T07:01:27.617Z,33.66
2023-05-14T07:06:30.860Z,34.05
2023-05-14T07:11:33.912Z,34.64
2023-05-14T07:16:37.094Z,35.19
2023-05-14T07:21:39.803Z,35.66
2023-05-14T07:26:42.428Z,35.31
2023-05-14T07:31:45.278Z,35.07
2023-05-14T07:36:48.226Z,35.49
2023-05-14T07:41:51.434Z,35.72
2023-05-14T07:46:54.097Z,36.08
2023-05-14T07:51:56.773Z,36.26
2023-05-14T07:56:59.374Z,36.06
2023-05-14T08:02:02.265Z,35.89
2023-05-14T08:07:05.909Z,35.68
2023-05-14T08:12:08.890Z,35.01
2023-05-14T08:17:11.562Z,34.64
2023-05-14T08:22:14.317Z,34.21
2023-05-14T08:27:17.147Z,33.88
2023-05-14T08:32:23.327Z,33.56
2023-05-14T08:37:27.288Z,33.83
2023-05-14T08:42:31.393Z,33.94
2023-05-14T08:47:34.351Z,33.81
2023-05-14T08:52:37.937Z,33.88
2023-05-14T08:57:40.752Z,33.36
2023-05-14T09:02:46.551Z,32.87
2023-05-14T09:07:49.922Z,32.92
2023-05-14T09:12:52.569Z,32.80
2023-05-14T09:17:55.485Z,32.71
2023-05-14T09:23:02.732Z,32.68
2023-05-14T09:28:08.340Z,31.73
2023-05-14T09:33:11.114Z,31.70
2023-05-14T09:38:13.714Z,31.60
2023-05-14T09:43:16.315Z,31.67
2023-05-14T09:48:19.909Z,31.71
2023-05-14T09:53:22.724Z,31.33
2023-05-14T09:58:25.507Z,31.70
2023-05-14T10:03:30.964Z,31.72
2023-05-14T10:08:36.136Z,31.30
2023-05-14T10:13:46.316Z,30.75
2023-05-14T10:18:57.014Z,31.09
2023-05-14T10:24:00.710Z,30.76
2023-05-14T10:29:03.367Z,29.26
2023-05-14T10:34:38.515Z,28.30
2023-05-14T10:40:08.263Z,27.68
2023-05-14T10:45:13.874Z,27.51
2023-05-14T10:50:17.727Z,27.45
2023-05-14T10:55:21.778Z,27.31
2023-05-14T11:00:27.731Z,27.06
2023-05-14T11:05:31.692Z,27.15
2023-05-14T11:10:35.799Z,27.19
2023-05-14T11:15:45.426Z,26.99
2023-05-14T11:20:48.016Z,27.00
2023-05-14T11:25:53.185Z,27.21
2023-05-14T11:30:56.299Z,26.93
2023-05-14T11:35:58.885Z,26.68
2023-05-14T11:41:01.440Z,26.46
2023-05-14T11:46:04.439Z,26.14
2023-05-14T11:51:07.166Z,25.68
2023-05-14T11:56:10.097Z,25.30
2023-05-14T12:01:14.145Z,24.96
2023-05-14T12:06:18.188Z,24.86
2023-05-14T12:11:21.991Z,24.98
2023-05-14T12:16:32.572Z,24.97
2023-05-14T12:21:36.678Z,24.94
2023-05-14T12:26:48.512Z,24.77
2023-05-14T12:31:51.352Z,24.60
2023-05-14T12:36:54.129Z,24.48
2023-05-14T12:41:56.653Z,24.49
2023-05-14T12:46:59.344Z,24.61
2023-05-14T12:52:17.405Z,24.73
2023-05-14T12:57:25.484Z,24.82
2023-05-14T13:02:28.202Z,24.54
2023-05-14T13:07:31.646Z,24.33
2023-05-14T13:12:34.384Z,24.70
2023-05-14T13:17:37.153Z,25.00
2023-05-14T13:22:39.929Z,25.10
2023-05-14T13:27:42.534Z,25.41
2023-05-14T13:32:46.140Z,25.60
2023-05-14T13:37:48.783Z,25.48
2023-05-14T13:42:51.417Z,25.16
2023-05-14T13:47:53.984Z,24.97
2023-05-14T13:52:56.756Z,24.97
2023-05-14T13:58:02.376Z,25.06
2023-05-14T14:03:05.698Z,25.10
2023-05-14T14:08:22.771Z,25.11
2023-05-14T14:13:27.970Z,25.08
2023-05-14T14:18:30.672Z,25.09
2023-05-14T14:23:33.553Z,25.22
2023-05-14T14:28:36.351Z,25.50
2023-05-14T14:33:39.297Z,25.77
2023-05-14T14:38:41.971Z,25.82
2023-05-14T14:43:44.767Z,25.78
2023-05-14T14:48:47.414Z,25.66
2023-05-14T14:53:50.081Z,25.48
2023-05-14T14:58:52.708Z,25.31
2023-05-14T15:03:55.269Z,25.23
2023-05-14T15:08:57.854Z,25.15
2023-05-14T15:14:00.445Z,25.26
2023-05-14T15:19:03.088Z,25.30
2023-05-14T15:24:06.859Z,25.23
2023-05-14T15:29:09.471Z,25.14
2023-05-14T15:34:12.046Z,25.04
2023-05-14T15:39:14.753Z,24.92
2023-05-14T15:44:17.552Z,24.77
2023-05-14T15:49:20.346Z,24.79
2023-05-14T15:54:23.079Z,24.84
2023-05-14T15:59:25.700Z,24.83
2023-05-14T16:04:28.374Z,24.78
2023-05-14T16:09:32.124Z,24.65
2023-05-14T16:14:35.830Z,24.54
2023-05-14T16:19:39.732Z,24.44
2023-05-14T16:24:42.637Z,24.35
2023-05-14T16:29:45.492Z,24.23
2023-05-14T16:34:51.685Z,24.06
2023-05-14T16:39:54.978Z,23.86
2023-05-14T16:44:57.621Z,23.68
2023-05-14T16:50:00.224Z,23.49
2023-05-14T16:55:03.110Z,23.34
2023-05-14T17:00:07.815Z,23.20
2023-05-14T17:05:10.483Z,23.14
2023-05-14T17:10:13.158Z,23.09
2023-05-14T17:15:15.947Z,23.09
2023-05-14T17:20:18.804Z,23.13
2023-05-14T17:25:23.658Z,23.13
2023-05-14T17:30:26.604Z,23.11
2023-05-14T17:35:29.251Z,23.01
2023-05-14T17:40:31.963Z,22.86
2023-05-14T17:45:46.253Z,22.66
2023-05-14T17:50:55.635Z,22.42
2023-05-14T17:55:58.357Z,22.18
2023-05-14T18:01:02.373Z,21.95
2023-05-14T18:06:05.360Z,21.74
2023-05-14T18:11:08.022Z,21.53
2023-05-14T18:16:10.724Z,21.33
2023-05-14T18:21:13.490Z,21.11
2023-05-14T18:26:16.329Z,20.91
2023-05-14T18:31:19.020Z,20.75
2023-05-14T18:36:21.965Z,20.57
2023-05-14T18:41:24.893Z,20.41
2023-05-14T18:46:27.964Z,20.18
2023-05-14T18:51:30.816Z,19.92
2023-05-14T18:56:34.742Z,19.68
2023-05-14T19:01:37.341Z,19.45
2023-05-14T19:06:43.012Z,19.26
2023-05-14T19:11:45.630Z,19.06
2023-05-14T19:16:51.505Z,18.90
2023-05-14T19:21:54.352Z,18.78
2023-05-14T19:26:57.063Z,18.64
2023-05-14T19:31:59.804Z,18.46
2023-05-14T19:37:03.186Z,18.24
2023-05-14T19:42:06.494Z,18.05
2023-05-14T19:47:09.283Z,17.92
2023-05-14T19:52:11.976Z,17.81
2023-05-14T19:57:14.604Z,17.73
2023-05-14T20:02:18.599Z,17.63
2023-05-14T20:07:21.465Z,17.43
2023-05-14T20:12:24.051Z,17.20
2023-05-14T20:17:26.870Z,17.00
2023-05-14T20:22:29.499Z,16.83
2023-05-14T20:27:32.676Z,16.64
2023-05-14T20:32:35.585Z,16.41
2023-05-14T20:37:39.041Z,16.16
2023-05-14T20:42:41.621Z,15.96
2023-05-14T20:47:44.559Z,15.77
2023-05-14T20:52:47.320Z,15.55
2023-05-14T20:57:49.898Z,15.40
2023-05-14T21:02:53.082Z,15.25
2023-05-14T21:07:55.772Z,15.10
2023-05-14T21:12:58.385Z,15.02
2023-05-14T21:18:02.180Z,14.98
2023-05-14T21:23:04.984Z,14.90
2023-05-14T21:28:07.811Z,14.80
2023-05-14T21:33:10.401Z,14.74
2023-05-14T21:38:13.001Z,14.64
2023-05-14T21:43:15.646Z,14.48
2023-05-14T21:48:18.424Z,14.34
2023-05-14T21:53:21.130Z,14.28
2023-05-14T21:58:23.911Z,14.27
2023-05-14T22:03:26.719Z,14.25
2023-05-14T22:08:30.726Z,14.19
2023-05-14T22:13:35.071Z,14.16
2023-05-14T22:18:38.357Z,14.14
2023-05-14T22:23:41.074Z,14.08
2023-05-14T22:28:43.697Z,14.08
2023-05-14T22:33:46.358Z,14.05
2023-05-14T22:38:48.926Z,13.97
2023-05-14T22:43:51.697Z,13.84
2023-05-14T22:48:54.558Z,13.73
2023-05-14T22:53:57.715Z,13.61
2023-05-14T22:59:00.683Z,13.49
2023-05-14T23:04:03.386Z,13.37
2023-05-14T23:09:06.057Z,13.26
2023-05-14T23:14:09.057Z,13.14
2023-05-14T23:19:12.337Z,13.02
2023-05-14T23:24:15.411Z,12.94
2023-05-14T23:29:18.075Z,12.91
2023-05-14T23:34:22.124Z,12.86
2023-05-14T23:39:24.749Z,12.80
2023-05-14T23:44:27.486Z,12.69
2023-05-14T23:49:30.116Z,12.60
2023-05-14T23:54:32.735Z,12.51
2023-05-14T23:59:35.529Z,12.47
